sensor_id;sensor_type;location;lat;lon;timestamp;temperature;humidity
19348;DHT22;9810;52.480;9.806;2022-09-21T00:01:08;6.20;99.90
19348;DHT22;9810;52.480;9.806;2022-09-21T00:03:37;6.00;99.90
19348;DHT22;9810;52.480;9.806;2022-09-21T00:06:07;5.70;99.90
19348;DHT22;9810;52.480;9.806;2022-09-21T00:08:35;5.70;99.90
19348;DHT22;9810;52.480;9.806;2022-09-21T00:11:03;5.60;99.90
19348;DHT22;9810;52.480;9.806;2022-09-21T00:13:31;5.40;99.90
19348;DHT22;9810;52.480;9.806;2022-09-21T00:15:59;5.50;99.90
19348;DHT22;9810;52.480;9.806;2022-09-21T00:18:27;5.40;99.90
19348;DHT22;9810;52.480;9.806;2022-09-21T00:20:55;5.70;99.90
19348;DHT22;9810;52.480;9.806;2022-09-21T00:23:22;5.70;99.90
19348;DHT22;9810;52.480;9.806;2022-09-21T00:25:50;5.80;99.90
19348;DHT22;9810;52.480;9.806;2022-09-21T00:28:17;5.70;99.90
19348;DHT22;9810;52.480;9.806;2022-09-21T00:30:44;5.50;99.90
19348;DHT22;9810;52.480;9.806;2022-09-21T00:33:16;5.70;99.90
19348;DHT22;9810;52.480;9.806;2022-09-21T00:35:45;5.70;99.90
19348;DHT22;9810;52.480;9.806;2022-09-21T00:38:12;5.90;99.90
19348;DHT22;9810;52.480;9.806;2022-09-21T00:40:39;5.60;99.90
19348;DHT22;9810;52.480;9.806;2022-09-21T00:43:13;5.30;99.90
19348;DHT22;9810;52.480;9.806;2022-09-21T00:45:41;5.20;99.90
19348;DHT22;9810;52.480;9.806;2022-09-21T00:48:09;5.20;99.90
19348;DHT22;9810;52.480;9.806;2022-09-21T00:50:38;5.10;99.90
19348;DHT22;9810;52.480;9.806;2022-09-21T00:53:09;5.10;99.90
19348;DHT22;9810;52.480;9.806;2022-09-21T00:55:40;5.30;99.90
19348;DHT22;9810;52.480;9.806;2022-09-21T00:58:13;5.60;99.90
19348;DHT22;9810;52.480;9.806;2022-09-21T01:00:42;5.70;99.90
19348;DHT22;9810;52.480;9.806;2022-09-21T01:03:09;5.70;99.90
19348;DHT22;9810;52.480;9.806;2022-09-21T01:05:37;5.70;99.90
19348;DHT22;9810;52.480;9.806;2022-09-21T01:08:06;5.60;99.90
19348;DHT22;9810;52.480;9.806;2022-09-21T01:10:45;5.40;99.90
19348;DHT22;9810;52.480;9.806;2022-09-21T01:13:26;5.20;99.90
19348;DHT22;9810;52.480;9.806;2022-09-21T01:16:06;5.10;99.90
19348;DHT22;9810;52.480;9.806;2022-09-21T01:18:41;5.00;99.90
19348;DHT22;9810;52.480;9.806;2022-09-21T01:21:17;4.90;99.90
19348;DHT22;9810;52.480;9.806;2022-09-21T01:24:15;4.80;99.90
19348;DHT22;9810;52.480;9.806;2022-09-21T01:27:11;4.70;99.90
19348;DHT22;9810;52.480;9.806;2022-09-21T01:29:49;4.70;99.90
19348;DHT22;9810;52.480;9.806;2022-09-21T01:32:22;4.70;99.90
19348;DHT22;9810;52.480;9.806;2022-09-21T01:34:56;4.70;99.90
19348;DHT22;9810;52.480;9.806;2022-09-21T01:37:30;4.60;99.90
19348;DHT22;9810;52.480;9.806;2022-09-21T01:40:00;4.60;99.90
19348;DHT22;9810;52.480;9.806;2022-09-21T01:42:29;4.80;99.90
19348;DHT22;9810;52.480;9.806;2022-09-21T01:45:01;4.80;99.90
19348;DHT22;9810;52.480;9.806;2022-09-21T01:47:30;4.90;99.90
19348;DHT22;9810;52.480;9.806;2022-09-21T01:50:00;5.10;99.90
19348;DHT22;9810;52.480;9.806;2022-09-21T01:52:33;5.10;99.90
19348;DHT22;9810;52.480;9.806;2022-09-21T01:55:05;5.10;99.90
19348;DHT22;9810;52.480;9.806;2022-09-21T01:57:38;5.10;99.90
19348;DHT22;9810;52.480;9.806;2022-09-21T02:00:10;5.30;99.90
19348;DHT22;9810;52.480;9.806;2022-09-21T02:02:40;5.30;99.90
19348;DHT22;9810;52.480;9.806;2022-09-21T02:05:09;5.20;99.90
19348;DHT22;9810;52.480;9.806;2022-09-21T02:07:36;5.10;99.90
19348;DHT22;9810;52.480;9.806;2022-09-21T02:10:07;5.20;99.90
19348;DHT22;9810;52.480;9.806;2022-09-21T02:12:36;5.20;99.90
19348;DHT22;9810;52.480;9.806;2022-09-21T02:15:04;5.20;99.90
19348;DHT22;9810;52.480;9.806;2022-09-21T02:17:40;5.10;99.90
19348;DHT22;9810;52.480;9.806;2022-09-21T02:20:18;4.80;99.90
19348;DHT22;9810;52.480;9.806;2022-09-21T02:22:56;4.60;99.90
19348;DHT22;9810;52.480;9.806;2022-09-21T02:25:35;4.70;99.90
19348;DHT22;9810;52.480;9.806;2022-09-21T02:28:09;4.90;99.90
19348;DHT22;9810;52.480;9.806;2022-09-21T02:30:42;4.70;99.90
19348;DHT22;9810;52.480;9.806;2022-09-21T02:33:17;4.70;99.90
19348;DHT22;9810;52.480;9.806;2022-09-21T02:35:49;5.00;99.90
19348;DHT22;9810;52.480;9.806;2022-09-21T02:38:21;5.00;99.90
19348;DHT22;9810;52.480;9.806;2022-09-21T02:40:54;5.00;99.90
19348;DHT22;9810;52.480;9.806;2022-09-21T02:43:25;5.10;99.90
19348;DHT22;9810;52.480;9.806;2022-09-21T02:45:58;5.20;99.90
19348;DHT22;9810;52.480;9.806;2022-09-21T02:48:30;5.00;99.90
19348;DHT22;9810;52.480;9.806;2022-09-21T02:51:04;4.70;99.90
19348;DHT22;9810;52.480;9.806;2022-09-21T02:53:34;4.50;99.90
19348;DHT22;9810;52.480;9.806;2022-09-21T02:56:04;4.40;99.90
19348;DHT22;9810;52.480;9.806;2022-09-21T02:58:36;4.30;99.90
19348;DHT22;9810;52.480;9.806;2022-09-21T03:01:05;4.40;99.90
19348;DHT22;9810;52.480;9.806;2022-09-21T03:03:34;4.60;99.90
19348;DHT22;9810;52.480;9.806;2022-09-21T03:06:02;4.90;99.90
19348;DHT22;9810;52.480;9.806;2022-09-21T03:08:29;4.90;99.90
19348;DHT22;9810;52.480;9.806;2022-09-21T03:10:56;4.90;99.90
19348;DHT22;9810;52.480;9.806;2022-09-21T03:13:24;4.60;99.90
19348;DHT22;9810;52.480;9.806;2022-09-21T03:15:58;4.40;99.90
19348;DHT22;9810;52.480;9.806;2022-09-21T03:18:25;4.30;99.90
19348;DHT22;9810;52.480;9.806;2022-09-21T03:20:54;4.30;99.90
19348;DHT22;9810;52.480;9.806;2022-09-21T03:23:22;4.30;99.90
19348;DHT22;9810;52.480;9.806;2022-09-21T03:25:49;4.40;99.90
19348;DHT22;9810;52.480;9.806;2022-09-21T03:28:17;4.60;99.90
19348;DHT22;9810;52.480;9.806;2022-09-21T03:30:46;4.70;99.90
19348;DHT22;9810;52.480;9.806;2022-09-21T03:33:13;4.40;99.90
19348;DHT22;9810;52.480;9.806;2022-09-21T03:35:41;4.40;99.90
19348;DHT22;9810;52.480;9.806;2022-09-21T03:38:10;4.30;99.90
19348;DHT22;9810;52.480;9.806;2022-09-21T03:40:37;4.30;99.90
19348;DHT22;9810;52.480;9.806;2022-09-21T03:43:04;4.30;99.90
19348;DHT22;9810;52.480;9.806;2022-09-21T03:45:31;4.30;99.90
19348;DHT22;9810;52.480;9.806;2022-09-21T03:47:59;4.30;99.90
19348;DHT22;9810;52.480;9.806;2022-09-21T03:50:28;4.30;99.90
19348;DHT22;9810;52.480;9.806;2022-09-21T03:52:56;4.30;99.90
19348;DHT22;9810;52.480;9.806;2022-09-21T03:55:24;4.20;99.90
19348;DHT22;9810;52.480;9.806;2022-09-21T03:57:52;4.20;99.90
19348;DHT22;9810;52.480;9.806;2022-09-21T04:00:19;4.20;99.90
19348;DHT22;9810;52.480;9.806;2022-09-21T04:02:46;4.30;99.90
19348;DHT22;9810;52.480;9.806;2022-09-21T04:05:15;4.50;99.90
19348;DHT22;9810;52.480;9.806;2022-09-21T04:07:43;4.40;99.90
19348;DHT22;9810;52.480;9.806;2022-09-21T04:10:14;4.20;99.90
19348;DHT22;9810;52.480;9.806;2022-09-21T04:12:44;4.10;99.90
19348;DHT22;9810;52.480;9.806;2022-09-21T04:15:13;4.10;99.90
19348;DHT22;9810;52.480;9.806;2022-09-21T04:17:40;4.00;99.90
19348;DHT22;9810;52.480;9.806;2022-09-21T04:20:08;4.20;99.90
19348;DHT22;9810;52.480;9.806;2022-09-21T04:22:36;4.30;99.90
19348;DHT22;9810;52.480;9.806;2022-09-21T04:25:03;4.30;99.90
19348;DHT22;9810;52.480;9.806;2022-09-21T04:27:30;4.10;99.90
19348;DHT22;9810;52.480;9.806;2022-09-21T04:29:59;4.30;99.90
19348;DHT22;9810;52.480;9.806;2022-09-21T04:32:26;4.20;99.90
19348;DHT22;9810;52.480;9.806;2022-09-21T04:34:53;4.20;99.90
19348;DHT22;9810;52.480;9.806;2022-09-21T04:37:20;4.10;99.90
19348;DHT22;9810;52.480;9.806;2022-09-21T04:39:47;4.00;99.90
19348;DHT22;9810;52.480;9.806;2022-09-21T04:42:14;3.90;99.90
19348;DHT22;9810;52.480;9.806;2022-09-21T04:44:41;3.90;99.90
19348;DHT22;9810;52.480;9.806;2022-09-21T04:47:10;3.90;99.90
19348;DHT22;9810;52.480;9.806;2022-09-21T04:49:37;3.90;99.90
19348;DHT22;9810;52.480;9.806;2022-09-21T04:52:05;3.90;99.90
19348;DHT22;9810;52.480;9.806;2022-09-21T04:54:32;3.90;99.90
19348;DHT22;9810;52.480;9.806;2022-09-21T04:56:59;3.90;99.90
19348;DHT22;9810;52.480;9.806;2022-09-21T04:59:26;4.20;99.90
19348;DHT22;9810;52.480;9.806;2022-09-21T05:01:53;4.30;99.90
19348;DHT22;9810;52.480;9.806;2022-09-21T05:04:22;4.40;99.90
19348;DHT22;9810;52.480;9.806;2022-09-21T05:06:49;4.50;99.90
19348;DHT22;9810;52.480;9.806;2022-09-21T05:09:17;4.60;99.90
19348;DHT22;9810;52.480;9.806;2022-09-21T05:12:01;4.70;99.90
19348;DHT22;9810;52.480;9.806;2022-09-21T05:14:28;4.70;99.90
19348;DHT22;9810;52.480;9.806;2022-09-21T05:16:56;4.40;99.90
19348;DHT22;9810;52.480;9.806;2022-09-21T05:19:24;4.40;99.90
19348;DHT22;9810;52.480;9.806;2022-09-21T05:21:51;4.50;99.90
19348;DHT22;9810;52.480;9.806;2022-09-21T05:24:19;4.60;99.90
19348;DHT22;9810;52.480;9.806;2022-09-21T05:26:46;4.60;99.90
19348;DHT22;9810;52.480;9.806;2022-09-21T05:29:13;4.80;99.90
19348;DHT22;9810;52.480;9.806;2022-09-21T05:31:44;4.90;99.90
19348;DHT22;9810;52.480;9.806;2022-09-21T05:34:28;5.10;99.90
19348;DHT22;9810;52.480;9.806;2022-09-21T05:37:01;5.10;99.90
19348;DHT22;9810;52.480;9.806;2022-09-21T05:39:31;5.10;99.90
19348;DHT22;9810;52.480;9.806;2022-09-21T05:41:59;4.80;99.90
19348;DHT22;9810;52.480;9.806;2022-09-21T05:44:27;4.60;99.90
19348;DHT22;9810;52.480;9.806;2022-09-21T05:47:00;4.60;99.90
19348;DHT22;9810;52.480;9.806;2022-09-21T05:49:43;4.80;99.90
19348;DHT22;9810;52.480;9.806;2022-09-21T05:52:20;5.10;99.90
19348;DHT22;9810;52.480;9.806;2022-09-21T05:54:58;5.30;99.90
19348;DHT22;9810;52.480;9.806;2022-09-21T05:57:37;5.40;99.90
19348;DHT22;9810;52.480;9.806;2022-09-21T06:00:13;5.50;99.90
19348;DHT22;9810;52.480;9.806;2022-09-21T06:03:03;5.70;99.90
19348;DHT22;9810;52.480;9.806;2022-09-21T06:05:37;5.80;99.90
19348;DHT22;9810;52.480;9.806;2022-09-21T06:08:05;6.00;99.90
19348;DHT22;9810;52.480;9.806;2022-09-21T06:10:33;6.10;99.90
19348;DHT22;9810;52.480;9.806;2022-09-21T06:13:01;6.20;99.90
19348;DHT22;9810;52.480;9.806;2022-09-21T06:15:28;6.30;99.90
19348;DHT22;9810;52.480;9.806;2022-09-21T06:17:56;6.40;99.90
19348;DHT22;9810;52.480;9.806;2022-09-21T06:20:23;6.60;99.90
19348;DHT22;9810;52.480;9.806;2022-09-21T06:22:52;6.80;99.90
19348;DHT22;9810;52.480;9.806;2022-09-21T06:25:25;6.80;99.90
19348;DHT22;9810;52.480;9.806;2022-09-21T06:27:52;7.00;99.90
19348;DHT22;9810;52.480;9.806;2022-09-21T06:30:19;7.00;99.90
19348;DHT22;9810;52.480;9.806;2022-09-21T06:32:47;7.20;99.90
19348;DHT22;9810;52.480;9.806;2022-09-21T06:35:14;7.00;99.90
19348;DHT22;9810;52.480;9.806;2022-09-21T06:37:41;7.20;99.90
19348;DHT22;9810;52.480;9.806;2022-09-21T06:40:10;7.20;99.90
19348;DHT22;9810;52.480;9.806;2022-09-21T06:42:37;7.40;99.90
19348;DHT22;9810;52.480;9.806;2022-09-21T06:45:05;7.40;99.90
19348;DHT22;9810;52.480;9.806;2022-09-21T06:47:33;7.60;99.90
19348;DHT22;9810;52.480;9.806;2022-09-21T06:49:59;7.90;99.90
19348;DHT22;9810;52.480;9.806;2022-09-21T06:52:27;8.10;99.90
19348;DHT22;9810;52.480;9.806;2022-09-21T06:54:54;8.30;99.90
19348;DHT22;9810;52.480;9.806;2022-09-21T06:57:23;8.40;99.90
19348;DHT22;9810;52.480;9.806;2022-09-21T06:59:50;8.30;99.90
19348;DHT22;9810;52.480;9.806;2022-09-21T07:02:17;8.50;99.90
19348;DHT22;9810;52.480;9.806;2022-09-21T07:04:44;8.50;99.90
19348;DHT22;9810;52.480;9.806;2022-09-21T07:07:11;8.60;99.90
19348;DHT22;9810;52.480;9.806;2022-09-21T07:09:38;8.70;99.90
19348;DHT22;9810;52.480;9.806;2022-09-21T07:12:06;9.00;99.90
19348;DHT22;9810;52.480;9.806;2022-09-21T07:14:35;9.20;99.90
19348;DHT22;9810;52.480;9.806;2022-09-21T07:17:02;9.30;99.90
19348;DHT22;9810;52.480;9.806;2022-09-21T07:19:31;9.10;99.90
19348;DHT22;9810;52.480;9.806;2022-09-21T07:21:58;9.40;99.90
19348;DHT22;9810;52.480;9.806;2022-09-21T07:24:25;9.60;99.90
19348;DHT22;9810;52.480;9.806;2022-09-21T07:26:52;9.40;99.90
19348;DHT22;9810;52.480;9.806;2022-09-21T07:29:19;9.60;99.90
19348;DHT22;9810;52.480;9.806;2022-09-21T07:31:48;9.80;99.90
19348;DHT22;9810;52.480;9.806;2022-09-21T07:34:15;10.20;99.90
19348;DHT22;9810;52.480;9.806;2022-09-21T07:36:43;10.30;99.90
19348;DHT22;9810;52.480;9.806;2022-09-21T07:39:10;10.30;99.90
19348;DHT22;9810;52.480;9.806;2022-09-21T07:41:37;10.30;99.90
19348;DHT22;9810;52.480;9.806;2022-09-21T07:44:04;10.90;99.90
19348;DHT22;9810;52.480;9.806;2022-09-21T07:46:31;10.80;99.90
19348;DHT22;9810;52.480;9.806;2022-09-21T07:49:02;10.90;99.90
19348;DHT22;9810;52.480;9.806;2022-09-21T07:51:30;11.30;99.90
19348;DHT22;9810;52.480;9.806;2022-09-21T07:53:57;12.30;99.90
19348;DHT22;9810;52.480;9.806;2022-09-21T07:56:24;13.10;99.90
19348;DHT22;9810;52.480;9.806;2022-09-21T07:58:52;14.70;99.90
19348;DHT22;9810;52.480;9.806;2022-09-21T08:01:34;16.40;99.90
19348;DHT22;9810;52.480;9.806;2022-09-21T08:04:04;15.90;99.90
19348;DHT22;9810;52.480;9.806;2022-09-21T08:06:33;16.70;99.90
19348;DHT22;9810;52.480;9.806;2022-09-21T08:09:00;18.60;99.90
19348;DHT22;9810;52.480;9.806;2022-09-21T08:11:29;20.10;99.90
19348;DHT22;9810;52.480;9.806;2022-09-21T08:13:59;20.80;99.90
19348;DHT22;9810;52.480;9.806;2022-09-21T08:16:27;21.60;99.90
19348;DHT22;9810;52.480;9.806;2022-09-21T08:18:55;20.90;99.90
19348;DHT22;9810;52.480;9.806;2022-09-21T08:21:24;21.80;99.90
19348;DHT22;9810;52.480;9.806;2022-09-21T08:23:51;21.50;99.90
19348;DHT22;9810;52.480;9.806;2022-09-21T08:26:19;19.90;99.90
19348;DHT22;9810;52.480;9.806;2022-09-21T08:28:50;19.10;99.90
19348;DHT22;9810;52.480;9.806;2022-09-21T08:31:19;21.60;99.90
19348;DHT22;9810;52.480;9.806;2022-09-21T08:33:47;23.30;99.90
19348;DHT22;9810;52.480;9.806;2022-09-21T08:36:15;23.00;99.90
19348;DHT22;9810;52.480;9.806;2022-09-21T08:38:44;20.70;99.90
19348;DHT22;9810;52.480;9.806;2022-09-21T08:41:14;21.70;99.90
19348;DHT22;9810;52.480;9.806;2022-09-21T08:43:47;21.40;99.90
19348;DHT22;9810;52.480;9.806;2022-09-21T08:46:17;19.30;99.90
19348;DHT22;9810;52.480;9.806;2022-09-21T08:48:49;18.90;99.90
19348;DHT22;9810;52.480;9.806;2022-09-21T08:51:20;18.40;99.90
19348;DHT22;9810;52.480;9.806;2022-09-21T08:53:52;19.30;99.90
19348;DHT22;9810;52.480;9.806;2022-09-21T08:56:21;21.90;99.90
19348;DHT22;9810;52.480;9.806;2022-09-21T08:58:49;22.70;99.90
19348;DHT22;9810;52.480;9.806;2022-09-21T09:01:30;20.80;99.90
19348;DHT22;9810;52.480;9.806;2022-09-21T09:04:14;19.40;99.90
19348;DHT22;9810;52.480;9.806;2022-09-21T09:06:51;19.40;99.90
19348;DHT22;9810;52.480;9.806;2022-09-21T09:09:33;19.50;99.90
19348;DHT22;9810;52.480;9.806;2022-09-21T09:12:19;20.60;99.90
19348;DHT22;9810;52.480;9.806;2022-09-21T09:14:57;20.30;99.90
19348;DHT22;9810;52.480;9.806;2022-09-21T09:17:35;20.60;99.90
19348;DHT22;9810;52.480;9.806;2022-09-21T09:20:09;22.00;99.90
19348;DHT22;9810;52.480;9.806;2022-09-21T09:22:41;22.10;99.90
19348;DHT22;9810;52.480;9.806;2022-09-21T09:25:16;24.70;99.90
19348;DHT22;9810;52.480;9.806;2022-09-21T09:27:46;24.20;99.90
19348;DHT22;9810;52.480;9.806;2022-09-21T09:30:16;24.70;99.90
19348;DHT22;9810;52.480;9.806;2022-09-21T09:32:51;26.50;99.90
19348;DHT22;9810;52.480;9.806;2022-09-21T09:35:25;28.30;99.90
19348;DHT22;9810;52.480;9.806;2022-09-21T09:37:57;27.80;99.90
19348;DHT22;9810;52.480;9.806;2022-09-21T09:40:52;28.10;99.90
19348;DHT22;9810;52.480;9.806;2022-09-21T09:43:33;24.60;99.90
19348;DHT22;9810;52.480;9.806;2022-09-21T09:46:09;24.90;99.90
19348;DHT22;9810;52.480;9.806;2022-09-21T09:49:09;24.60;99.90
19348;DHT22;9810;52.480;9.806;2022-09-21T09:51:39;26.90;99.90
19348;DHT22;9810;52.480;9.806;2022-09-21T09:54:13;28.40;99.90
19348;DHT22;9810;52.480;9.806;2022-09-21T09:56:43;28.30;99.50
19348;DHT22;9810;52.480;9.806;2022-09-21T09:59:18;27.40;99.90
19348;DHT22;9810;52.480;9.806;2022-09-21T10:01:58;24.20;99.90
19348;DHT22;9810;52.480;9.806;2022-09-21T10:04:27;23.20;99.90
19348;DHT22;9810;52.480;9.806;2022-09-21T10:06:54;24.00;99.90
19348;DHT22;9810;52.480;9.806;2022-09-21T10:09:26;26.90;99.90
19348;DHT22;9810;52.480;9.806;2022-09-21T10:11:59;26.80;99.90
19348;DHT22;9810;52.480;9.806;2022-09-21T10:14:28;28.90;98.50
19348;DHT22;9810;52.480;9.806;2022-09-21T10:17:03;29.00;94.90
19348;DHT22;9810;52.480;9.806;2022-09-21T10:19:31;28.70;95.40
19348;DHT22;9810;52.480;9.806;2022-09-21T10:22:01;27.70;95.70
19348;DHT22;9810;52.480;9.806;2022-09-21T10:24:31;27.30;99.00
19348;DHT22;9810;52.480;9.806;2022-09-21T10:27:12;24.90;99.90
19348;DHT22;9810;52.480;9.806;2022-09-21T10:29:42;24.80;99.90
19348;DHT22;9810;52.480;9.806;2022-09-21T10:32:22;24.80;99.90
19348;DHT22;9810;52.480;9.806;2022-09-21T10:35:01;23.70;99.90
19348;DHT22;9810;52.480;9.806;2022-09-21T10:37:31;23.40;99.90
19348;DHT22;9810;52.480;9.806;2022-09-21T10:40:00;21.90;99.90
19348;DHT22;9810;52.480;9.806;2022-09-21T10:42:33;22.10;99.90
19348;DHT22;9810;52.480;9.806;2022-09-21T10:45:11;22.30;99.90
19348;DHT22;9810;52.480;9.806;2022-09-21T10:47:42;23.70;99.90
19348;DHT22;9810;52.480;9.806;2022-09-21T10:50:22;24.90;99.90
19348;DHT22;9810;52.480;9.806;2022-09-21T10:52:53;26.30;99.90
19348;DHT22;9810;52.480;9.806;2022-09-21T10:55:22;25.40;99.90
19348;DHT22;9810;52.480;9.806;2022-09-21T10:57:51;27.00;99.10
19348;DHT22;9810;52.480;9.806;2022-09-21T11:00:33;26.40;97.30
19348;DHT22;9810;52.480;9.806;2022-09-21T11:03:30;24.10;97.80
19348;DHT22;9810;52.480;9.806;2022-09-21T11:06:04;23.20;99.90
19348;DHT22;9810;52.480;9.806;2022-09-21T11:08:35;22.80;99.50
19348;DHT22;9810;52.480;9.806;2022-09-21T11:11:12;22.60;99.90
19348;DHT22;9810;52.480;9.806;2022-09-21T11:13:48;21.80;99.90
19348;DHT22;9810;52.480;9.806;2022-09-21T11:16:25;22.30;99.90
19348;DHT22;9810;52.480;9.806;2022-09-21T11:18:57;24.00;99.90
19348;DHT22;9810;52.480;9.806;2022-09-21T11:21:33;23.00;99.90
19348;DHT22;9810;52.480;9.806;2022-09-21T11:24:09;22.90;99.90
19348;DHT22;9810;52.480;9.806;2022-09-21T11:26:43;21.90;99.90
19348;DHT22;9810;52.480;9.806;2022-09-21T11:29:19;21.20;99.90
19348;DHT22;9810;52.480;9.806;2022-09-21T11:32:04;21.60;99.90
19348;DHT22;9810;52.480;9.806;2022-09-21T11:37:43;22.90;98.70
19348;DHT22;9810;52.480;9.806;2022-09-21T11:40:27;22.20;99.90
19348;DHT22;9810;52.480;9.806;2022-09-21T11:43:07;22.20;99.90
19348;DHT22;9810;52.480;9.806;2022-09-21T11:45:50;21.10;99.90
19348;DHT22;9810;52.480;9.806;2022-09-21T11:48:29;20.10;99.90
19348;DHT22;9810;52.480;9.806;2022-09-21T11:51:11;19.80;99.90
19348;DHT22;9810;52.480;9.806;2022-09-21T11:53:52;19.40;99.90
19348;DHT22;9810;52.480;9.806;2022-09-21T11:56:36;19.20;99.90
19348;DHT22;9810;52.480;9.806;2022-09-21T11:59:30;19.60;99.90
19348;DHT22;9810;52.480;9.806;2022-09-21T12:02:27;20.20;99.90
19348;DHT22;9810;52.480;9.806;2022-09-21T12:05:01;19.90;99.90
19348;DHT22;9810;52.480;9.806;2022-09-21T12:07:47;19.70;99.90
19348;DHT22;9810;52.480;9.806;2022-09-21T12:10:38;19.20;99.90
19348;DHT22;9810;52.480;9.806;2022-09-21T12:13:16;19.80;99.90
19348;DHT22;9810;52.480;9.806;2022-09-21T12:15:53;20.10;99.90
19348;DHT22;9810;52.480;9.806;2022-09-21T12:18:29;20.10;99.90
19348;DHT22;9810;52.480;9.806;2022-09-21T12:21:05;19.80;99.90
19348;DHT22;9810;52.480;9.806;2022-09-21T12:23:40;19.50;99.90
19348;DHT22;9810;52.480;9.806;2022-09-21T12:26:09;19.40;99.90
19348;DHT22;9810;52.480;9.806;2022-09-21T12:28:43;19.80;99.90
19348;DHT22;9810;52.480;9.806;2022-09-21T12:31:17;19.80;99.90
19348;DHT22;9810;52.480;9.806;2022-09-21T12:33:51;18.90;99.90
19348;DHT22;9810;52.480;9.806;2022-09-21T12:36:23;18.80;99.90
19348;DHT22;9810;52.480;9.806;2022-09-21T12:38:56;18.80;99.90
19348;DHT22;9810;52.480;9.806;2022-09-21T12:41:30;19.20;99.90
19348;DHT22;9810;52.480;9.806;2022-09-21T12:44:04;19.20;99.90
19348;DHT22;9810;52.480;9.806;2022-09-21T12:46:39;19.20;99.90
19348;DHT22;9810;52.480;9.806;2022-09-21T12:49:13;19.10;99.90
19348;DHT22;9810;52.480;9.806;2022-09-21T12:51:43;19.20;99.90
19348;DHT22;9810;52.480;9.806;2022-09-21T12:54:18;19.10;99.90
19348;DHT22;9810;52.480;9.806;2022-09-21T12:56:54;19.00;99.90
19348;DHT22;9810;52.480;9.806;2022-09-21T12:59:29;19.10;99.90
19348;DHT22;9810;52.480;9.806;2022-09-21T13:02:03;19.20;99.90
19348;DHT22;9810;52.480;9.806;2022-09-21T13:04:47;19.20;99.90
19348;DHT22;9810;52.480;9.806;2022-09-21T13:07:41;19.30;99.90
19348;DHT22;9810;52.480;9.806;2022-09-21T13:10:17;19.20;99.90
19348;DHT22;9810;52.480;9.806;2022-09-21T13:12:49;18.70;99.90
19348;DHT22;9810;52.480;9.806;2022-09-21T13:15:23;18.80;99.90
19348;DHT22;9810;52.480;9.806;2022-09-21T13:17:59;18.80;99.90
19348;DHT22;9810;52.480;9.806;2022-09-21T13:20:33;18.80;99.90
19348;DHT22;9810;52.480;9.806;2022-09-21T13:23:01;18.40;99.90
19348;DHT22;9810;52.480;9.806;2022-09-21T13:25:29;18.00;99.90
19348;DHT22;9810;52.480;9.806;2022-09-21T13:28:05;17.70;99.90
19348;DHT22;9810;52.480;9.806;2022-09-21T13:30:39;17.60;99.90
19348;DHT22;9810;52.480;9.806;2022-09-21T13:33:29;17.80;99.90
19348;DHT22;9810;52.480;9.806;2022-09-21T13:36:35;18.20;99.90
19348;DHT22;9810;52.480;9.806;2022-09-21T13:39:17;18.30;99.90
19348;DHT22;9810;52.480;9.806;2022-09-21T13:41:45;18.50;99.90
19348;DHT22;9810;52.480;9.806;2022-09-21T13:44:35;18.60;99.90
19348;DHT22;9810;52.480;9.806;2022-09-21T13:47:03;18.20;99.90
19348;DHT22;9810;52.480;9.806;2022-09-21T13:49:41;17.90;99.90
19348;DHT22;9810;52.480;9.806;2022-09-21T13:52:31;18.00;99.90
19348;DHT22;9810;52.480;9.806;2022-09-21T13:55:01;18.10;99.90
19348;DHT22;9810;52.480;9.806;2022-09-21T13:57:35;18.10;99.90
19348;DHT22;9810;52.480;9.806;2022-09-21T14:02:57;17.80;99.90
19348;DHT22;9810;52.480;9.806;2022-09-21T14:05:32;18.10;99.90
19348;DHT22;9810;52.480;9.806;2022-09-21T14:08:04;18.10;99.90
19348;DHT22;9810;52.480;9.806;2022-09-21T14:10:34;17.80;99.90
19348;DHT22;9810;52.480;9.806;2022-09-21T14:13:15;17.30;99.90
19348;DHT22;9810;52.480;9.806;2022-09-21T14:15:49;16.70;99.90
19348;DHT22;9810;52.480;9.806;2022-09-21T14:18:21;16.30;99.90
19348;DHT22;9810;52.480;9.806;2022-09-21T14:21:11;16.10;99.90
19348;DHT22;9810;52.480;9.806;2022-09-21T14:24:19;16.00;99.90
19348;DHT22;9810;52.480;9.806;2022-09-21T14:26:58;16.20;99.90
19348;DHT22;9810;52.480;9.806;2022-09-21T14:29:30;16.60;99.90
19348;DHT22;9810;52.480;9.806;2022-09-21T14:32:02;17.10;99.90
19348;DHT22;9810;52.480;9.806;2022-09-21T14:34:34;17.50;99.90
19348;DHT22;9810;52.480;9.806;2022-09-21T14:37:08;17.80;99.90
19348;DHT22;9810;52.480;9.806;2022-09-21T14:39:43;17.70;99.90
19348;DHT22;9810;52.480;9.806;2022-09-21T14:42:14;17.80;99.90
19348;DHT22;9810;52.480;9.806;2022-09-21T14:44:42;17.80;99.90
19348;DHT22;9810;52.480;9.806;2022-09-21T14:50:27;17.50;99.90
19348;DHT22;9810;52.480;9.806;2022-09-21T14:53:30;17.40;99.90
19348;DHT22;9810;52.480;9.806;2022-09-21T14:56:41;17.70;99.90
19348;DHT22;9810;52.480;9.806;2022-09-21T14:59:45;17.70;99.90
19348;DHT22;9810;52.480;9.806;2022-09-21T15:02:18;17.70;99.90
19348;DHT22;9810;52.480;9.806;2022-09-21T15:04:55;17.70;99.90
19348;DHT22;9810;52.480;9.806;2022-09-21T15:07:33;17.80;99.90
19348;DHT22;9810;52.480;9.806;2022-09-21T15:10:26;17.60;99.90
19348;DHT22;9810;52.480;9.806;2022-09-21T15:13:21;17.70;99.90
19348;DHT22;9810;52.480;9.806;2022-09-21T15:16:12;17.00;99.90
19348;DHT22;9810;52.480;9.806;2022-09-21T15:18:45;17.20;99.90
19348;DHT22;9810;52.480;9.806;2022-09-21T15:21:20;16.90;99.90
19348;DHT22;9810;52.480;9.806;2022-09-21T15:23:49;16.80;99.90
19348;DHT22;9810;52.480;9.806;2022-09-21T15:26:20;17.00;99.90
19348;DHT22;9810;52.480;9.806;2022-09-21T15:28:53;16.80;99.90
19348;DHT22;9810;52.480;9.806;2022-09-21T15:31:20;16.90;99.90
19348;DHT22;9810;52.480;9.806;2022-09-21T15:33:48;17.10;99.90
19348;DHT22;9810;52.480;9.806;2022-09-21T15:36:22;17.30;99.90
19348;DHT22;9810;52.480;9.806;2022-09-21T15:38:50;17.30;99.90
19348;DHT22;9810;52.480;9.806;2022-09-21T15:41:38;17.20;99.90
19348;DHT22;9810;52.480;9.806;2022-09-21T15:44:12;16.80;99.90
19348;DHT22;9810;52.480;9.806;2022-09-21T15:46:42;16.50;99.90
19348;DHT22;9810;52.480;9.806;2022-09-21T15:49:11;16.30;99.90
19348;DHT22;9810;52.480;9.806;2022-09-21T15:51:41;16.20;99.90
19348;DHT22;9810;52.480;9.806;2022-09-21T15:54:22;16.00;99.90
19348;DHT22;9810;52.480;9.806;2022-09-21T15:56:52;15.90;99.90
19348;DHT22;9810;52.480;9.806;2022-09-21T15:59:21;15.90;99.90
19348;DHT22;9810;52.480;9.806;2022-09-21T16:01:51;15.70;99.90
19348;DHT22;9810;52.480;9.806;2022-09-21T16:04:20;15.70;99.90
19348;DHT22;9810;52.480;9.806;2022-09-21T16:06:58;15.50;99.90
19348;DHT22;9810;52.480;9.806;2022-09-21T16:09:36;15.50;99.90
19348;DHT22;9810;52.480;9.806;2022-09-21T16:12:36;15.50;99.90
19348;DHT22;9810;52.480;9.806;2022-09-21T16:15:14;15.50;99.90
19348;DHT22;9810;52.480;9.806;2022-09-21T16:17:53;15.50;99.90
19348;DHT22;9810;52.480;9.806;2022-09-21T16:20:22;15.30;99.90
19348;DHT22;9810;52.480;9.806;2022-09-21T16:22:51;15.20;99.90
19348;DHT22;9810;52.480;9.806;2022-09-21T16:25:26;15.20;99.90
19348;DHT22;9810;52.480;9.806;2022-09-21T16:27:55;15.00;99.90
19348;DHT22;9810;52.480;9.806;2022-09-21T16:30:49;14.90;99.90
19348;DHT22;9810;52.480;9.806;2022-09-21T16:33:34;14.70;99.90
19348;DHT22;9810;52.480;9.806;2022-09-21T16:39:24;14.60;99.90
19348;DHT22;9810;52.480;9.806;2022-09-21T16:41:54;14.60;99.90